createdAt,value
2022-10-09T00:00:48.535Z,96561.91
2022-10-09T00:05:50.813Z,96590.91
2022-10-09T00:10:53.152Z,96603.28
2022-10-09T00:15:55.478Z,96604.03
2022-10-09T00:20:58.423Z,96567.22
2022-10-09T00:26:01.947Z,96586.03
2022-10-09T00:31:09.604Z,96583.34
2022-10-09T00:36:19.410Z,96566.81
2022-10-09T00:41:30.505Z,96548.22
2022-10-09T00:46:48.955Z,96532.69
2022-10-09T00:51:52.801Z,96559.91
2022-10-09T00:56:55.500Z,96593.34
2022-10-09T01:01:57.967Z,96578.66
2022-10-09T01:07:29.517Z,96583.44
2022-10-09T01:13:05.869Z,96566.06
2022-10-09T01:18:29.961Z,96585.09
2022-10-09T01:24:16.589Z,96566.78
2022-10-09T01:29:22.634Z,96590.13
2022-10-09T01:34:26.722Z,96579.22
2022-10-09T01:39:31.746Z,96573.03
2022-10-09T01:44:34.454Z,96557.84
2022-10-09T01:49:42.317Z,96591.56
2022-10-09T01:55:23.307Z,96562.66
2022-10-09T02:00:26.761Z,96565.72
2022-10-09T02:05:30.697Z,96527.84
2022-10-09T02:10:35.492Z,96571.44
2022-10-09T02:15:47.223Z,96583.44
2022-10-09T02:20:55.130Z,96592.44
2022-10-09T02:25:58.316Z,96562.03
2022-10-09T02:31:10.261Z,96581.97
2022-10-09T02:36:12.605Z,96568.59
2022-10-09T02:41:14.779Z,96575.28
2022-10-09T02:46:17.246Z,96588.31
2022-10-09T02:51:19.704Z,96609.19
2022-10-09T02:56:24.854Z,96598.66
2022-10-09T03:01:27.266Z,96592.72
2022-10-09T03:06:30.311Z,96575.63
2022-10-09T03:11:32.451Z,96562.25
2022-10-09T03:16:34.828Z,96582.72
2022-10-09T03:21:37.182Z,96573.38
2022-10-09T03:26:39.310Z,96574.31
2022-10-09T03:31:56.657Z,96559.28
2022-10-09T03:36:58.980Z,96552.94
2022-10-09T03:42:01.106Z,96602.50
2022-10-09T03:47:03.290Z,96603.50
2022-10-09T03:52:05.722Z,96607.94
2022-10-09T03:57:07.841Z,96613.88
2022-10-09T04:02:10.069Z,96603.53
2022-10-09T04:07:12.506Z,96590.31
2022-10-09T04:12:14.749Z,96591.31
2022-10-09T04:17:16.911Z,96626.75
2022-10-09T04:22:19.213Z,96623.56
2022-10-09T04:27:21.756Z,96612.22
2022-10-09T04:32:24.048Z,96589.38
2022-10-09T04:37:26.216Z,96614.63
2022-10-09T04:42:28.308Z,96600.94
2022-10-09T04:47:31.274Z,96601.44
2022-10-09T04:52:33.682Z,96613.69
2022-10-09T04:57:36.001Z,96626.13
2022-10-09T05:02:38.151Z,96573.75
2022-10-09T05:07:40.234Z,96641.75
2022-10-09T05:12:42.505Z,96611.72
2022-10-09T05:17:44.820Z,96642.66
2022-10-09T05:22:48.108Z,96655.72
2022-10-09T05:27:50.469Z,96643.16
2022-10-09T05:32:52.643Z,96609.59
2022-10-09T05:37:54.968Z,96632.84
2022-10-09T05:42:59.665Z,96627.25
2022-10-09T05:48:02.130Z,96660.78
2022-10-09T05:53:04.303Z,96666.19
2022-10-09T05:58:06.649Z,96665.97
2022-10-09T06:03:09.145Z,96654.69
2022-10-09T06:08:11.299Z,96613.31
2022-10-09T06:13:15.926Z,96629.06
2022-10-09T06:18:18.275Z,96658.22
2022-10-09T06:23:20.410Z,96660.25
2022-10-09T06:28:29.004Z,96637.13
2022-10-09T06:33:36.532Z,96640.88
2022-10-09T06:38:39.582Z,96603.34
2022-10-09T06:43:42.434Z,96607.59
2022-10-09T06:48:44.574Z,96609.47
2022-10-09T06:53:49.165Z,96611.09
2022-10-09T06:58:51.661Z,96627.75
2022-10-09T07:03:57.038Z,96610.09
2022-10-09T07:09:05.192Z,96649.41
2022-10-09T07:14:09.366Z,96618.56
2022-10-09T07:19:12.714Z,96656.47
2022-10-09T07:24:16.119Z,96650.41
2022-10-09T07:29:20.877Z,96627.88
2022-10-09T07:34:23.454Z,96626.16
2022-10-09T07:39:25.691Z,96621.31
2022-10-09T07:44:28.360Z,96629.97
2022-10-09T07:49:30.885Z,96601.13
2022-10-09T07:54:35.706Z,96647.19
2022-10-09T07:59:38.025Z,96634.53
2022-10-09T08:04:40.248Z,96576.19
2022-10-09T08:09:42.538Z,96625.00
2022-10-09T08:14:47.356Z,96638.47
2022-10-09T08:19:49.556Z,96630.72
2022-10-09T08:24:54.477Z,96621.75
2022-10-09T08:29:56.669Z,96623.72
2022-10-09T08:34:58.896Z,96628.56
2022-10-09T08:40:01.276Z,96631.44
2022-10-09T08:45:04.133Z,96614.88
2022-10-09T08:50:15.235Z,96592.19
2022-10-09T08:55:23.364Z,96630.53
2022-10-09T09:00:32.767Z,96611.53
2022-10-09T09:05:38.138Z,96626.81
2022-10-09T09:10:46.708Z,96605.69
2022-10-09T09:16:34.621Z,96620.81
2022-10-09T09:21:48.043Z,96610.75
2022-10-09T09:26:59.056Z,96584.94
2022-10-09T09:32:01.733Z,96596.81
2022-10-09T09:37:04.176Z,96615.03
2022-10-09T09:42:18.759Z,96625.66
2022-10-09T09:47:35.169Z,96614.50
2022-10-09T09:52:42.866Z,96569.03
2022-10-09T09:57:46.501Z,96593.97
2022-10-09T10:02:50.489Z,96591.41
2022-10-09T10:07:53.097Z,96565.13
2022-10-09T10:13:00.383Z,96611.94
2022-10-09T10:18:08.722Z,96572.03
2022-10-09T10:23:25.287Z,96608.50
2022-10-09T10:28:33.091Z,96611.81
2022-10-09T10:33:37.707Z,96593.81
2022-10-09T10:38:49.741Z,96559.09
2022-10-09T10:43:59.749Z,96591.94
2022-10-09T10:49:02.184Z,96564.53
2022-10-09T10:54:23.092Z,96600.28
2022-10-09T10:59:43.031Z,96595.25
2022-10-09T11:05:09.893Z,96583.72
2022-10-09T11:10:48.576Z,96574.72
2022-10-09T11:16:12.630Z,96592.31
2022-10-09T11:21:40.649Z,96551.13
2022-10-09T11:26:58.465Z,96577.28
2022-10-09T11:32:10.931Z,96562.88
2022-10-09T11:37:27.754Z,96533.06
2022-10-09T11:42:30.906Z,96531.84
2022-10-09T11:47:51.474Z,96572.25
2022-10-09T11:53:04.291Z,96574.25
2022-10-09T11:58:19.856Z,96568.03
2022-10-09T12:03:38.219Z,96517.41
2022-10-09T12:09:03.880Z,96529.59
2022-10-09T12:14:24.008Z,96509.50
2022-10-09T12:19:31.443Z,96534.84
2022-10-09T12:25:04.794Z,96563.41
2022-10-09T12:30:14.330Z,96557.34
2022-10-09T12:35:33.196Z,96522.75
2022-10-09T12:40:35.538Z,96540.69
2022-10-09T12:45:47.267Z,96529.88
2022-10-09T12:50:50.375Z,96567.97
2022-10-09T12:56:01.550Z,96497.66
2022-10-09T13:01:07.856Z,96486.66
2022-10-09T13:06:42.762Z,96503.16
2022-10-09T13:11:50.731Z,96564.69
2022-10-09T13:22:08.689Z,96525.66
2022-10-09T13:27:12.243Z,96558.22
2022-10-09T13:32:16.556Z,96554.94
2022-10-09T13:37:28.203Z,96522.22
2022-10-09T13:42:34.454Z,96491.78
2022-10-09T13:47:42.544Z,96497.41
2022-10-09T13:52:45.303Z,96484.84
2022-10-09T14:03:07.187Z,96526.72
2022-10-09T14:08:09.750Z,96488.31
2022-10-09T14:13:11.965Z,96531.72
2022-10-09T14:18:14.242Z,96546.75
2022-10-09T14:23:16.682Z,96540.03
2022-10-09T14:28:19.006Z,96520.19
2022-10-09T14:33:21.334Z,96504.16
2022-10-09T14:38:23.572Z,96563.69
2022-10-09T14:43:26.140Z,96567.56
2022-10-09T14:48:28.452Z,96545.50
2022-10-09T14:53:30.923Z,96579.56
2022-10-09T14:58:35.045Z,96583.69
2022-10-09T15:03:37.216Z,96537.19
2022-10-09T15:08:42.413Z,96607.91
2022-10-09T15:14:02.168Z,96573.72
2022-10-09T15:19:06.305Z,96611.50
2022-10-09T15:24:10.593Z,96601.91
2022-10-09T15:29:13.020Z,96581.59
2022-10-09T15:34:20.174Z,96598.41
2022-10-09T15:39:56.616Z,96647.97
2022-10-09T15:45:11.978Z,96591.28
2022-10-09T15:50:14.415Z,96642.97
2022-10-09T15:55:16.897Z,96639.91
2022-10-09T16:00:22.280Z,96641.38
2022-10-09T16:05:24.693Z,96615.56
2022-10-09T16:10:27.068Z,96662.69
2022-10-09T16:15:29.734Z,96629.97
2022-10-09T16:21:14.415Z,96668.75
2022-10-09T19:08:51.895Z,96841.94
2022-10-09T19:13:55.340Z,96848.53
2022-10-09T19:19:10.506Z,96843.88
2022-10-09T19:24:13.638Z,96824.88
2022-10-09T19:29:18.997Z,96841.06
2022-10-09T19:34:21.592Z,96874.53
2022-10-09T19:39:23.892Z,96840.50
2022-10-09T19:44:26.196Z,96805.13
2022-10-09T19:49:31.918Z,96877.97
2022-10-09T19:54:35.328Z,96866.38
2022-10-09T19:59:38.340Z,96868.16
2022-10-09T20:04:40.626Z,96868.16
2022-10-09T20:09:45.474Z,96845.25
2022-10-09T20:14:48.023Z,96890.38
2022-10-09T20:19:50.290Z,96877.03
2022-10-09T20:24:53.709Z,96902.19
2022-10-09T20:29:56.189Z,96866.84
2022-10-09T20:34:58.420Z,96941.66
2022-10-09T20:40:00.864Z,96859.88
2022-10-09T20:45:03.116Z,96881.41
2022-10-09T20:50:08.992Z,96906.00
2022-10-09T20:55:11.781Z,96892.13
2022-10-09T21:00:14.296Z,96854.06
2022-10-09T21:05:19.862Z,96946.38
2022-10-09T21:10:30.090Z,96859.72
2022-10-09T21:15:34.979Z,96947.03
2022-10-09T21:20:41.870Z,96919.53
2022-10-09T21:25:49.288Z,96909.19
2022-10-09T21:30:51.718Z,96913.91
2022-10-09T21:35:55.779Z,96883.25
2022-10-09T21:40:58.070Z,96902.91
2022-10-09T21:46:00.480Z,96913.56
2022-10-09T21:51:02.879Z,96909.31
2022-10-09T21:56:06.265Z,96956.47
2022-10-09T22:01:45.725Z,96893.63
2022-10-09T22:07:00.203Z,96950.69
2022-10-09T22:12:02.587Z,96880.78
2022-10-09T22:17:08.158Z,96949.75
2022-10-09T22:22:13.046Z,96864.03
2022-10-09T22:27:15.605Z,96910.34
2022-10-09T22:32:17.797Z,96899.22
2022-10-09T22:37:20.174Z,96920.47
2022-10-09T22:42:22.558Z,96902.50
2022-10-09T22:47:24.957Z,96871.00
2022-10-09T22:52:27.778Z,96899.00
2022-10-09T22:57:30.198Z,96877.00
2022-10-09T23:02:32.625Z,96965.31
2022-10-09T23:07:34.952Z,96933.94
2022-10-09T23:12:37.226Z,96910.53
2022-10-09T23:17:39.480Z,96958.63
2022-10-09T23:22:41.897Z,96988.97
2022-10-09T23:27:44.073Z,96986.84
2022-10-09T23:32:46.367Z,96980.25
2022-10-09T23:37:48.724Z,96986.34
2022-10-09T23:42:51.140Z,97010.25
2022-10-09T23:47:53.656Z,96936.72
2022-10-09T23:52:55.946Z,96937.69
2022-10-09T23:57:58.322Z,97004.16
